sensor_id;sensor_type;location;lat;lon;timestamp;P1;durP1;ratioP1;P2;durP2;ratioP2
51664;SDS011;37751;52.408;12.536;2023-02-28T00:01:30;10.17;;;3.73;;
51664;SDS011;37751;52.408;12.536;2023-02-28T00:03:58;6.83;;;3.60;;
51664;SDS011;37751;52.408;12.536;2023-02-28T00:06:26;6.47;;;3.27;;
51664;SDS011;37751;52.408;12.536;2023-02-28T00:08:55;7.20;;;3.57;;
51664;SDS011;37751;52.408;12.536;2023-02-28T00:11:22;6.73;;;3.00;;
51664;SDS011;37751;52.408;12.536;2023-02-28T00:13:50;9.93;;;3.37;;
51664;SDS011;37751;52.408;12.536;2023-02-28T00:16:19;8.10;;;3.33;;
51664;SDS011;37751;52.408;12.536;2023-02-28T00:18:49;6.90;;;2.90;;
51664;SDS011;37751;52.408;12.536;2023-02-28T00:21:18;5.27;;;3.17;;
51664;SDS011;37751;52.408;12.536;2023-02-28T00:23:47;8.37;;;3.30;;
51664;SDS011;37751;52.408;12.536;2023-02-28T00:26:16;7.10;;;3.27;;
51664;SDS011;37751;52.408;12.536;2023-02-28T00:28:46;8.73;;;3.00;;
51664;SDS011;37751;52.408;12.536;2023-02-28T00:31:14;7.43;;;3.30;;
51664;SDS011;37751;52.408;12.536;2023-02-28T00:33:41;9.17;;;3.10;;
51664;SDS011;37751;52.408;12.536;2023-02-28T00:36:10;5.73;;;2.50;;
51664;SDS011;37751;52.408;12.536;2023-02-28T00:38:39;8.63;;;2.93;;
51664;SDS011;37751;52.408;12.536;2023-02-28T00:41:08;8.93;;;3.57;;
51664;SDS011;37751;52.408;12.536;2023-02-28T00:43:37;5.53;;;3.17;;
51664;SDS011;37751;52.408;12.536;2023-02-28T00:46:06;3.70;;;2.50;;
51664;SDS011;37751;52.408;12.536;2023-02-28T00:48:35;4.70;;;2.30;;
51664;SDS011;37751;52.408;12.536;2023-02-28T00:51:03;6.87;;;2.43;;
51664;SDS011;37751;52.408;12.536;2023-02-28T00:53:32;7.90;;;2.50;;
51664;SDS011;37751;52.408;12.536;2023-02-28T00:56:00;3.60;;;2.40;;
51664;SDS011;37751;52.408;12.536;2023-02-28T00:58:28;5.40;;;2.23;;
51664;SDS011;37751;52.408;12.536;2023-02-28T01:00:56;5.57;;;2.20;;
51664;SDS011;37751;52.408;12.536;2023-02-28T01:03:24;9.87;;;2.60;;
51664;SDS011;37751;52.408;12.536;2023-02-28T01:05:52;4.23;;;2.37;;
51664;SDS011;37751;52.408;12.536;2023-02-28T01:08:20;4.40;;;2.07;;
51664;SDS011;37751;52.408;12.536;2023-02-28T01:10:48;5.67;;;2.10;;
51664;SDS011;37751;52.408;12.536;2023-02-28T01:13:16;3.67;;;1.80;;
51664;SDS011;37751;52.408;12.536;2023-02-28T01:15:46;3.10;;;1.70;;
51664;SDS011;37751;52.408;12.536;2023-02-28T01:18:24;4.53;;;1.60;;
51664;SDS011;37751;52.408;12.536;2023-02-28T01:20:52;4.40;;;2.57;;
51664;SDS011;37751;52.408;12.536;2023-02-28T01:23:20;4.03;;;1.43;;
51664;SDS011;37751;52.408;12.536;2023-02-28T01:25:50;4.80;;;1.77;;
51664;SDS011;37751;52.408;12.536;2023-02-28T01:28:19;2.33;;;1.40;;
51664;SDS011;37751;52.408;12.536;2023-02-28T01:30:48;2.97;;;1.63;;
51664;SDS011;37751;52.408;12.536;2023-02-28T01:33:17;3.80;;;1.50;;
51664;SDS011;37751;52.408;12.536;2023-02-28T01:35:45;2.67;;;1.60;;
51664;SDS011;37751;52.408;12.536;2023-02-28T01:38:14;3.87;;;1.70;;
51664;SDS011;37751;52.408;12.536;2023-02-28T01:40:51;3.37;;;1.90;;
51664;SDS011;37751;52.408;12.536;2023-02-28T01:43:23;3.53;;;1.50;;
51664;SDS011;37751;52.408;12.536;2023-02-28T01:46:18;3.37;;;1.50;;
51664;SDS011;37751;52.408;12.536;2023-02-28T01:48:54;4.47;;;1.50;;
51664;SDS011;37751;52.408;12.536;2023-02-28T01:51:37;3.83;;;1.43;;
51664;SDS011;37751;52.408;12.536;2023-02-28T01:54:19;2.33;;;1.60;;
51664;SDS011;37751;52.408;12.536;2023-02-28T01:57:07;5.83;;;1.83;;
51664;SDS011;37751;52.408;12.536;2023-02-28T01:59:43;2.73;;;1.83;;
51664;SDS011;37751;52.408;12.536;2023-02-28T02:02:21;2.80;;;1.57;;
51664;SDS011;37751;52.408;12.536;2023-02-28T02:04:53;3.90;;;2.10;;
51664;SDS011;37751;52.408;12.536;2023-02-28T02:07:31;2.70;;;1.53;;
51664;SDS011;37751;52.408;12.536;2023-02-28T02:10:19;6.00;;;2.00;;
51664;SDS011;37751;52.408;12.536;2023-02-28T02:13:25;2.67;;;1.90;;
51664;SDS011;37751;52.408;12.536;2023-02-28T02:21:59;2.77;;;1.70;;
51664;SDS011;37751;52.408;12.536;2023-02-28T02:27:58;3.77;;;1.90;;
51664;SDS011;37751;52.408;12.536;2023-02-28T02:36:50;5.83;;;1.90;;
51664;SDS011;37751;52.408;12.536;2023-02-28T02:45:16;6.10;;;1.97;;
51664;SDS011;37751;52.408;12.536;2023-02-28T02:47:53;3.90;;;2.27;;
51664;SDS011;37751;52.408;12.536;2023-02-28T02:50:25;3.93;;;2.07;;
51664;SDS011;37751;52.408;12.536;2023-02-28T02:53:01;3.13;;;2.13;;
51664;SDS011;37751;52.408;12.536;2023-02-28T02:55:32;5.00;;;1.87;;
51664;SDS011;37751;52.408;12.536;2023-02-28T02:58:07;6.60;;;3.10;;
51664;SDS011;37751;52.408;12.536;2023-02-28T03:00:43;4.80;;;2.30;;
51664;SDS011;37751;52.408;12.536;2023-02-28T03:03:17;4.67;;;2.50;;
51664;SDS011;37751;52.408;12.536;2023-02-28T03:05:48;3.70;;;2.20;;
51664;SDS011;37751;52.408;12.536;2023-02-28T03:08:17;6.80;;;2.83;;
51664;SDS011;37751;52.408;12.536;2023-02-28T03:10:46;4.40;;;2.30;;
51664;SDS011;37751;52.408;12.536;2023-02-28T03:28:03;5.60;;;2.30;;
51664;SDS011;37751;52.408;12.536;2023-02-28T03:31:04;6.40;;;2.60;;
51664;SDS011;37751;52.408;12.536;2023-02-28T03:33:58;6.80;;;2.50;;
51664;SDS011;37751;52.408;12.536;2023-02-28T03:36:30;4.80;;;2.63;;
51664;SDS011;37751;52.408;12.536;2023-02-28T03:39:20;5.77;;;3.20;;
51664;SDS011;37751;52.408;12.536;2023-02-28T03:41:56;7.50;;;2.73;;
51664;SDS011;37751;52.408;12.536;2023-02-28T03:44:40;6.40;;;3.93;;
51664;SDS011;37751;52.408;12.536;2023-02-28T03:47:14;8.07;;;3.73;;
51664;SDS011;37751;52.408;12.536;2023-02-28T03:49:53;4.90;;;2.97;;
51664;SDS011;37751;52.408;12.536;2023-02-28T03:52:25;9.57;;;2.93;;
51664;SDS011;37751;52.408;12.536;2023-02-28T03:55:00;5.53;;;2.90;;
51664;SDS011;37751;52.408;12.536;2023-02-28T03:57:39;5.10;;;3.00;;
51664;SDS011;37751;52.408;12.536;2023-02-28T04:00:30;4.97;;;2.87;;
51664;SDS011;37751;52.408;12.536;2023-02-28T04:03:05;4.53;;;2.60;;
51664;SDS011;37751;52.408;12.536;2023-02-28T04:05:33;5.83;;;3.03;;
51664;SDS011;37751;52.408;12.536;2023-02-28T04:08:20;5.87;;;3.00;;
51664;SDS011;37751;52.408;12.536;2023-02-28T04:11:01;6.43;;;2.73;;
51664;SDS011;37751;52.408;12.536;2023-02-28T04:13:40;7.63;;;2.63;;
51664;SDS011;37751;52.408;12.536;2023-02-28T04:16:08;10.67;;;2.67;;
51664;SDS011;37751;52.408;12.536;2023-02-28T04:18:50;7.47;;;3.20;;
51664;SDS011;37751;52.408;12.536;2023-02-28T04:21:18;9.73;;;3.43;;
51664;SDS011;37751;52.408;12.536;2023-02-28T04:23:49;7.10;;;3.03;;
51664;SDS011;37751;52.408;12.536;2023-02-28T04:26:16;4.20;;;2.60;;
51664;SDS011;37751;52.408;12.536;2023-02-28T04:28:44;6.67;;;3.27;;
51664;SDS011;37751;52.408;12.536;2023-02-28T04:31:12;7.80;;;3.80;;
51664;SDS011;37751;52.408;12.536;2023-02-28T04:33:40;10.47;;;4.13;;
51664;SDS011;37751;52.408;12.536;2023-02-28T04:36:08;6.07;;;3.13;;
51664;SDS011;37751;52.408;12.536;2023-02-28T04:38:36;6.47;;;3.07;;
51664;SDS011;37751;52.408;12.536;2023-02-28T04:41:05;4.10;;;3.03;;
51664;SDS011;37751;52.408;12.536;2023-02-28T04:43:33;5.87;;;2.90;;
51664;SDS011;37751;52.408;12.536;2023-02-28T04:46:01;5.30;;;3.17;;
51664;SDS011;37751;52.408;12.536;2023-02-28T04:48:32;6.30;;;3.20;;
51664;SDS011;37751;52.408;12.536;2023-02-28T04:53:32;9.70;;;3.33;;
51664;SDS011;37751;52.408;12.536;2023-02-28T04:56:00;6.47;;;2.97;;
51664;SDS011;37751;52.408;12.536;2023-02-28T04:58:28;8.23;;;3.63;;
51664;SDS011;37751;52.408;12.536;2023-02-28T05:01:04;5.33;;;3.50;;
51664;SDS011;37751;52.408;12.536;2023-02-28T05:03:54;9.47;;;3.53;;
51664;SDS011;37751;52.408;12.536;2023-02-28T05:06:24;11.20;;;4.03;;
51664;SDS011;37751;52.408;12.536;2023-02-28T05:08:54;7.57;;;4.10;;
51664;SDS011;37751;52.408;12.536;2023-02-28T05:11:27;7.13;;;3.50;;
51664;SDS011;37751;52.408;12.536;2023-02-28T05:14:02;7.47;;;3.93;;
51664;SDS011;37751;52.408;12.536;2023-02-28T05:16:32;11.23;;;4.30;;
51664;SDS011;37751;52.408;12.536;2023-02-28T05:19:00;9.07;;;4.07;;
51664;SDS011;37751;52.408;12.536;2023-02-28T05:24:05;7.87;;;3.73;;
51664;SDS011;37751;52.408;12.536;2023-02-28T05:26:37;9.77;;;4.07;;
51664;SDS011;37751;52.408;12.536;2023-02-28T05:29:10;11.73;;;4.40;;
51664;SDS011;37751;52.408;12.536;2023-02-28T05:31:42;10.80;;;3.57;;
51664;SDS011;37751;52.408;12.536;2023-02-28T05:34:13;8.87;;;3.97;;
51664;SDS011;37751;52.408;12.536;2023-02-28T05:36:43;12.20;;;4.23;;
51664;SDS011;37751;52.408;12.536;2023-02-28T05:39:10;11.63;;;5.83;;
51664;SDS011;37751;52.408;12.536;2023-02-28T05:41:40;8.93;;;4.93;;
51664;SDS011;37751;52.408;12.536;2023-02-28T05:44:09;9.83;;;4.70;;
51664;SDS011;37751;52.408;12.536;2023-02-28T05:46:37;10.27;;;4.90;;
51664;SDS011;37751;52.408;12.536;2023-02-28T05:49:05;6.67;;;3.50;;
51664;SDS011;37751;52.408;12.536;2023-02-28T05:51:36;9.63;;;4.00;;
51664;SDS011;37751;52.408;12.536;2023-02-28T05:54:10;6.87;;;3.93;;
51664;SDS011;37751;52.408;12.536;2023-02-28T05:56:50;13.13;;;4.23;;
51664;SDS011;37751;52.408;12.536;2023-02-28T05:59:18;12.10;;;4.33;;
51664;SDS011;37751;52.408;12.536;2023-02-28T06:01:46;12.67;;;4.70;;
51664;SDS011;37751;52.408;12.536;2023-02-28T06:04:17;8.03;;;4.03;;
51664;SDS011;37751;52.408;12.536;2023-02-28T06:06:57;8.20;;;4.10;;
51664;SDS011;37751;52.408;12.536;2023-02-28T06:09:25;12.50;;;5.50;;
51664;SDS011;37751;52.408;12.536;2023-02-28T06:11:53;9.03;;;4.83;;
51664;SDS011;37751;52.408;12.536;2023-02-28T06:14:21;8.60;;;4.70;;
51664;SDS011;37751;52.408;12.536;2023-02-28T06:16:48;12.23;;;4.23;;
51664;SDS011;37751;52.408;12.536;2023-02-28T06:19:19;7.67;;;4.37;;
51664;SDS011;37751;52.408;12.536;2023-02-28T06:21:49;12.23;;;5.10;;
51664;SDS011;37751;52.408;12.536;2023-02-28T06:24:19;13.30;;;5.73;;
51664;SDS011;37751;52.408;12.536;2023-02-28T06:26:51;10.40;;;4.33;;
51664;SDS011;37751;52.408;12.536;2023-02-28T06:29:19;12.87;;;4.97;;
51664;SDS011;37751;52.408;12.536;2023-02-28T06:31:47;11.33;;;4.57;;
51664;SDS011;37751;52.408;12.536;2023-02-28T06:34:15;9.13;;;4.80;;
51664;SDS011;37751;52.408;12.536;2023-02-28T06:36:44;7.73;;;4.57;;
51664;SDS011;37751;52.408;12.536;2023-02-28T06:39:11;10.03;;;4.80;;
51664;SDS011;37751;52.408;12.536;2023-02-28T06:41:39;8.50;;;4.30;;
51664;SDS011;37751;52.408;12.536;2023-02-28T06:44:22;8.93;;;5.33;;
51664;SDS011;37751;52.408;12.536;2023-02-28T06:46:50;8.33;;;4.23;;
51664;SDS011;37751;52.408;12.536;2023-02-28T06:49:18;14.53;;;4.27;;
51664;SDS011;37751;52.408;12.536;2023-02-28T06:51:46;10.73;;;4.77;;
51664;SDS011;37751;52.408;12.536;2023-02-28T06:54:14;7.23;;;3.93;;
51664;SDS011;37751;52.408;12.536;2023-02-28T06:56:42;7.87;;;4.57;;
51664;SDS011;37751;52.408;12.536;2023-02-28T06:59:09;8.10;;;4.60;;
51664;SDS011;37751;52.408;12.536;2023-02-28T07:01:37;9.20;;;4.57;;
51664;SDS011;37751;52.408;12.536;2023-02-28T07:04:06;7.07;;;4.20;;
51664;SDS011;37751;52.408;12.536;2023-02-28T07:06:34;9.47;;;4.43;;
51664;SDS011;37751;52.408;12.536;2023-02-28T07:09:03;6.90;;;4.10;;
51664;SDS011;37751;52.408;12.536;2023-02-28T07:11:35;8.90;;;4.40;;
51664;SDS011;37751;52.408;12.536;2023-02-28T07:14:03;9.30;;;5.27;;
51664;SDS011;37751;52.408;12.536;2023-02-28T07:16:31;9.70;;;4.63;;
51664;SDS011;37751;52.408;12.536;2023-02-28T07:18:59;8.53;;;4.27;;
51664;SDS011;37751;52.408;12.536;2023-02-28T07:21:27;7.73;;;4.40;;
51664;SDS011;37751;52.408;12.536;2023-02-28T07:23:55;8.90;;;4.63;;
51664;SDS011;37751;52.408;12.536;2023-02-28T07:26:23;9.53;;;5.13;;
51664;SDS011;37751;52.408;12.536;2023-02-28T07:28:51;9.87;;;4.93;;
51664;SDS011;37751;52.408;12.536;2023-02-28T07:31:19;9.43;;;4.83;;
51664;SDS011;37751;52.408;12.536;2023-02-28T07:33:47;9.80;;;5.47;;
51664;SDS011;37751;52.408;12.536;2023-02-28T07:36:16;9.63;;;4.80;;
51664;SDS011;37751;52.408;12.536;2023-02-28T07:38:46;9.53;;;4.80;;
51664;SDS011;37751;52.408;12.536;2023-02-28T07:41:18;8.80;;;4.83;;
51664;SDS011;37751;52.408;12.536;2023-02-28T07:43:48;8.20;;;4.90;;
51664;SDS011;37751;52.408;12.536;2023-02-28T07:46:16;10.37;;;5.70;;
51664;SDS011;37751;52.408;12.536;2023-02-28T07:48:44;9.50;;;5.60;;
51664;SDS011;37751;52.408;12.536;2023-02-28T07:51:12;13.47;;;5.63;;
51664;SDS011;37751;52.408;12.536;2023-02-28T07:53:40;10.30;;;5.87;;
51664;SDS011;37751;52.408;12.536;2023-02-28T07:56:08;10.23;;;5.80;;
51664;SDS011;37751;52.408;12.536;2023-02-28T07:58:37;7.43;;;5.30;;
51664;SDS011;37751;52.408;12.536;2023-02-28T08:01:06;14.20;;;5.40;;
51664;SDS011;37751;52.408;12.536;2023-02-28T08:03:37;8.17;;;4.80;;
51664;SDS011;37751;52.408;12.536;2023-02-28T08:06:13;11.27;;;5.10;;
51664;SDS011;37751;52.408;12.536;2023-02-28T08:08:47;9.03;;;5.07;;
51664;SDS011;37751;52.408;12.536;2023-02-28T08:11:15;13.83;;;5.70;;
51664;SDS011;37751;52.408;12.536;2023-02-28T08:13:44;7.57;;;4.70;;
51664;SDS011;37751;52.408;12.536;2023-02-28T08:16:12;8.83;;;5.27;;
51664;SDS011;37751;52.408;12.536;2023-02-28T08:18:45;9.93;;;5.13;;
51664;SDS011;37751;52.408;12.536;2023-02-28T08:21:16;8.13;;;4.90;;
51664;SDS011;37751;52.408;12.536;2023-02-28T08:23:50;8.83;;;5.17;;
51664;SDS011;37751;52.408;12.536;2023-02-28T08:26:18;10.77;;;6.33;;
51664;SDS011;37751;52.408;12.536;2023-02-28T08:28:47;8.50;;;5.00;;
51664;SDS011;37751;52.408;12.536;2023-02-28T08:31:16;9.33;;;5.20;;
51664;SDS011;37751;52.408;12.536;2023-02-28T08:33:44;11.17;;;5.50;;
51664;SDS011;37751;52.408;12.536;2023-02-28T08:36:12;6.97;;;4.33;;
51664;SDS011;37751;52.408;12.536;2023-02-28T08:38:40;8.63;;;4.67;;
51664;SDS011;37751;52.408;12.536;2023-02-28T08:41:10;9.00;;;4.80;;
51664;SDS011;37751;52.408;12.536;2023-02-28T08:43:40;9.13;;;5.07;;
51664;SDS011;37751;52.408;12.536;2023-02-28T08:46:10;10.50;;;5.03;;
51664;SDS011;37751;52.408;12.536;2023-02-28T08:48:40;10.73;;;5.23;;
51664;SDS011;37751;52.408;12.536;2023-02-28T08:51:17;10.57;;;4.43;;
51664;SDS011;37751;52.408;12.536;2023-02-28T08:53:48;9.30;;;4.73;;
51664;SDS011;37751;52.408;12.536;2023-02-28T08:56:16;9.33;;;4.73;;
51664;SDS011;37751;52.408;12.536;2023-02-28T08:58:45;11.10;;;5.63;;
51664;SDS011;37751;52.408;12.536;2023-02-28T09:01:15;6.33;;;4.00;;
51664;SDS011;37751;52.408;12.536;2023-02-28T09:03:47;7.77;;;4.20;;
51664;SDS011;37751;52.408;12.536;2023-02-28T09:06:17;11.63;;;5.50;;
51664;SDS011;37751;52.408;12.536;2023-02-28T09:08:46;8.57;;;4.53;;
51664;SDS011;37751;52.408;12.536;2023-02-28T09:11:15;8.87;;;4.10;;
51664;SDS011;37751;52.408;12.536;2023-02-28T09:13:43;7.10;;;3.43;;
51664;SDS011;37751;52.408;12.536;2023-02-28T09:16:12;9.07;;;2.80;;
51664;SDS011;37751;52.408;12.536;2023-02-28T09:18:45;5.53;;;3.00;;
51664;SDS011;37751;52.408;12.536;2023-02-28T09:21:14;10.40;;;3.47;;
51664;SDS011;37751;52.408;12.536;2023-02-28T09:23:45;4.43;;;2.70;;
51664;SDS011;37751;52.408;12.536;2023-02-28T09:26:24;6.97;;;2.53;;
51664;SDS011;37751;52.408;12.536;2023-02-28T09:29:06;5.80;;;2.63;;
51664;SDS011;37751;52.408;12.536;2023-02-28T09:32:33;4.73;;;2.80;;
51664;SDS011;37751;52.408;12.536;2023-02-28T09:35:01;7.10;;;3.13;;
51664;SDS011;37751;52.408;12.536;2023-02-28T09:37:31;4.50;;;2.73;;
51664;SDS011;37751;52.408;12.536;2023-02-28T09:40:01;5.50;;;3.27;;
51664;SDS011;37751;52.408;12.536;2023-02-28T09:42:31;5.63;;;3.13;;
51664;SDS011;37751;52.408;12.536;2023-02-28T09:45:13;5.80;;;2.77;;
51664;SDS011;37751;52.408;12.536;2023-02-28T09:48:24;4.13;;;2.60;;
51664;SDS011;37751;52.408;12.536;2023-02-28T09:54:10;6.70;;;2.70;;
51664;SDS011;37751;52.408;12.536;2023-02-28T09:59:36;4.50;;;2.37;;
51664;SDS011;37751;52.408;12.536;2023-02-28T10:05:07;6.13;;;2.10;;
51664;SDS011;37751;52.408;12.536;2023-02-28T10:10:44;5.43;;;2.30;;
51664;SDS011;37751;52.408;12.536;2023-02-28T10:16:20;4.73;;;2.53;;
51664;SDS011;37751;52.408;12.536;2023-02-28T10:19:26;5.13;;;2.20;;
51664;SDS011;37751;52.408;12.536;2023-02-28T10:22:01;5.40;;;2.10;;
51664;SDS011;37751;52.408;12.536;2023-02-28T10:24:39;8.17;;;2.50;;
51664;SDS011;37751;52.408;12.536;2023-02-28T10:27:23;5.90;;;2.90;;
51664;SDS011;37751;52.408;12.536;2023-02-28T10:29:56;4.30;;;2.17;;
51664;SDS011;37751;52.408;12.536;2023-02-28T10:32:34;9.03;;;4.37;;
51664;SDS011;37751;52.408;12.536;2023-02-28T10:37:49;5.60;;;2.90;;
51664;SDS011;37751;52.408;12.536;2023-02-28T10:40:28;9.27;;;3.33;;
51664;SDS011;37751;52.408;12.536;2023-02-28T10:43:44;6.53;;;2.90;;
51664;SDS011;37751;52.408;12.536;2023-02-28T10:46:18;4.77;;;2.40;;
51664;SDS011;37751;52.408;12.536;2023-02-28T10:48:59;3.83;;;2.60;;
51664;SDS011;37751;52.408;12.536;2023-02-28T10:51:36;7.30;;;2.77;;
51664;SDS011;37751;52.408;12.536;2023-02-28T10:54:17;6.13;;;2.87;;
51664;SDS011;37751;52.408;12.536;2023-02-28T10:57:20;3.30;;;2.30;;
51664;SDS011;37751;52.408;12.536;2023-02-28T11:00:17;3.27;;;1.87;;
51664;SDS011;37751;52.408;12.536;2023-02-28T11:02:46;8.23;;;2.40;;
51664;SDS011;37751;52.408;12.536;2023-02-28T11:05:22;3.87;;;2.00;;
51664;SDS011;37751;52.408;12.536;2023-02-28T11:07:59;5.37;;;2.10;;
51664;SDS011;37751;52.408;12.536;2023-02-28T11:10:53;4.43;;;1.97;;
51664;SDS011;37751;52.408;12.536;2023-02-28T11:13:26;5.67;;;2.20;;
51664;SDS011;37751;52.408;12.536;2023-02-28T11:16:00;4.53;;;2.03;;
51664;SDS011;37751;52.408;12.536;2023-02-28T11:21:05;4.40;;;2.57;;
51664;SDS011;37751;52.408;12.536;2023-02-28T11:23:34;3.73;;;2.00;;
51664;SDS011;37751;52.408;12.536;2023-02-28T11:26:07;6.40;;;2.40;;
51664;SDS011;37751;52.408;12.536;2023-02-28T11:28:39;3.53;;;2.17;;
51664;SDS011;37751;52.408;12.536;2023-02-28T11:36:24;4.93;;;2.30;;
51664;SDS011;37751;52.408;12.536;2023-02-28T11:39:04;7.43;;;3.10;;
51664;SDS011;37751;52.408;12.536;2023-02-28T11:45:08;4.43;;;2.57;;
51664;SDS011;37751;52.408;12.536;2023-02-28T12:24:36;8.60;;;2.80;;
51664;SDS011;37751;52.408;12.536;2023-02-28T12:27:31;3.60;;;2.47;;
51664;SDS011;37751;52.408;12.536;2023-02-28T12:30:13;7.93;;;3.00;;
51664;SDS011;37751;52.408;12.536;2023-02-28T12:33:03;6.20;;;2.47;;
51664;SDS011;37751;52.408;12.536;2023-02-28T12:38:29;5.10;;;2.60;;
51664;SDS011;37751;52.408;12.536;2023-02-28T12:41:05;4.40;;;2.40;;
51664;SDS011;37751;52.408;12.536;2023-02-28T12:43:48;6.23;;;3.10;;
51664;SDS011;37751;52.408;12.536;2023-02-28T12:46:35;6.90;;;2.53;;
51664;SDS011;37751;52.408;12.536;2023-02-28T12:49:13;5.93;;;2.80;;
51664;SDS011;37751;52.408;12.536;2023-02-28T12:51:45;3.07;;;2.23;;
51664;SDS011;37751;52.408;12.536;2023-02-28T12:54:16;4.10;;;2.33;;
51664;SDS011;37751;52.408;12.536;2023-02-28T12:57:02;6.90;;;2.20;;
51664;SDS011;37751;52.408;12.536;2023-02-28T12:59:56;8.90;;;2.30;;
51664;SDS011;37751;52.408;12.536;2023-02-28T13:09:08;5.50;;;3.47;;
51664;SDS011;37751;52.408;12.536;2023-02-28T13:11:44;13.20;;;3.47;;
51664;SDS011;37751;52.408;12.536;2023-02-28T13:19:41;5.30;;;2.60;;
51664;SDS011;37751;52.408;12.536;2023-02-28T13:22:41;4.80;;;2.97;;
51664;SDS011;37751;52.408;12.536;2023-02-28T13:27:50;5.57;;;2.77;;
51664;SDS011;37751;52.408;12.536;2023-02-28T13:38:43;5.60;;;2.43;;
51664;SDS011;37751;52.408;12.536;2023-02-28T13:41:47;3.87;;;2.57;;
51664;SDS011;37751;52.408;12.536;2023-02-28T13:58:07;5.37;;;2.90;;
51664;SDS011;37751;52.408;12.536;2023-02-28T14:01:27;4.03;;;2.50;;
51664;SDS011;37751;52.408;12.536;2023-02-28T14:06:52;4.07;;;2.20;;
51664;SDS011;37751;52.408;12.536;2023-02-28T14:11:54;5.50;;;2.43;;
51664;SDS011;37751;52.408;12.536;2023-02-28T14:17:03;5.77;;;3.10;;
51664;SDS011;37751;52.408;12.536;2023-02-28T14:19:39;4.87;;;3.17;;
51664;SDS011;37751;52.408;12.536;2023-02-28T14:28:46;6.90;;;2.90;;
51664;SDS011;37751;52.408;12.536;2023-02-28T14:31:34;5.30;;;3.07;;
51664;SDS011;37751;52.408;12.536;2023-02-28T14:34:14;5.13;;;2.80;;
51664;SDS011;37751;52.408;12.536;2023-02-28T14:37:13;5.73;;;3.23;;
51664;SDS011;37751;52.408;12.536;2023-02-28T14:39:47;5.87;;;2.80;;
51664;SDS011;37751;52.408;12.536;2023-02-28T14:42:29;6.27;;;3.13;;
51664;SDS011;37751;52.408;12.536;2023-02-28T14:44:58;4.47;;;3.40;;
51664;SDS011;37751;52.408;12.536;2023-02-28T14:47:28;8.90;;;3.03;;
51664;SDS011;37751;52.408;12.536;2023-02-28T14:50:03;5.27;;;3.20;;
51664;SDS011;37751;52.408;12.536;2023-02-28T14:52:32;4.63;;;3.07;;
51664;SDS011;37751;52.408;12.536;2023-02-28T14:55:05;10.20;;;3.23;;
51664;SDS011;37751;52.408;12.536;2023-02-28T14:57:44;6.27;;;3.03;;
51664;SDS011;37751;52.408;12.536;2023-02-28T15:00:34;9.17;;;4.27;;
51664;SDS011;37751;52.408;12.536;2023-02-28T15:03:33;7.27;;;3.60;;
51664;SDS011;37751;52.408;12.536;2023-02-28T15:06:16;6.53;;;3.67;;
51664;SDS011;37751;52.408;12.536;2023-02-28T15:09:01;6.83;;;3.47;;
51664;SDS011;37751;52.408;12.536;2023-02-28T15:11:58;10.93;;;4.60;;
51664;SDS011;37751;52.408;12.536;2023-02-28T15:14:34;10.90;;;5.43;;
51664;SDS011;37751;52.408;12.536;2023-02-28T15:17:07;6.07;;;4.03;;
51664;SDS011;37751;52.408;12.536;2023-02-28T15:19:52;6.73;;;4.00;;
51664;SDS011;37751;52.408;12.536;2023-02-28T15:22:27;5.13;;;3.20;;
51664;SDS011;37751;52.408;12.536;2023-02-28T15:25:03;6.60;;;3.20;;
51664;SDS011;37751;52.408;12.536;2023-02-28T15:27:33;8.23;;;3.77;;
51664;SDS011;37751;52.408;12.536;2023-02-28T15:30:59;5.67;;;3.23;;
51664;SDS011;37751;52.408;12.536;2023-02-28T15:34:17;8.00;;;3.10;;
51664;SDS011;37751;52.408;12.536;2023-02-28T15:36:54;7.07;;;3.57;;
51664;SDS011;37751;52.408;12.536;2023-02-28T15:39:27;7.60;;;3.80;;
51664;SDS011;37751;52.408;12.536;2023-02-28T15:42:29;6.50;;;3.13;;
51664;SDS011;37751;52.408;12.536;2023-02-28T15:44:59;7.27;;;2.93;;
51664;SDS011;37751;52.408;12.536;2023-02-28T15:47:30;6.47;;;3.80;;
51664;SDS011;37751;52.408;12.536;2023-02-28T15:50:40;5.83;;;3.67;;
51664;SDS011;37751;52.408;12.536;2023-02-28T15:53:33;6.03;;;3.40;;
51664;SDS011;37751;52.408;12.536;2023-02-28T15:56:30;6.47;;;2.83;;
51664;SDS011;37751;52.408;12.536;2023-02-28T15:59:07;6.77;;;3.60;;
51664;SDS011;37751;52.408;12.536;2023-02-28T16:02:36;6.63;;;3.17;;
51664;SDS011;37751;52.408;12.536;2023-02-28T16:05:39;4.90;;;3.50;;
51664;SDS011;37751;52.408;12.536;2023-02-28T16:08:15;4.70;;;3.20;;
51664;SDS011;37751;52.408;12.536;2023-02-28T16:10:45;7.53;;;2.77;;
51664;SDS011;37751;52.408;12.536;2023-02-28T16:13:13;5.40;;;3.00;;
51664;SDS011;37751;52.408;12.536;2023-02-28T16:15:42;8.20;;;3.60;;
51664;SDS011;37751;52.408;12.536;2023-02-28T16:18:39;7.13;;;3.73;;
51664;SDS011;37751;52.408;12.536;2023-02-28T16:21:12;7.30;;;4.37;;
51664;SDS011;37751;52.408;12.536;2023-02-28T16:24:01;5.57;;;2.97;;
51664;SDS011;37751;52.408;12.536;2023-02-28T16:26:36;8.00;;;3.87;;
51664;SDS011;37751;52.408;12.536;2023-02-28T16:29:30;10.03;;;3.70;;
51664;SDS011;37751;52.408;12.536;2023-02-28T16:32:14;8.47;;;4.53;;
51664;SDS011;37751;52.408;12.536;2023-02-28T16:35:01;11.67;;;3.70;;
51664;SDS011;37751;52.408;12.536;2023-02-28T16:37:37;10.13;;;3.40;;
51664;SDS011;37751;52.408;12.536;2023-02-28T16:40:13;6.33;;;3.77;;
51664;SDS011;37751;52.408;12.536;2023-02-28T16:42:48;8.40;;;3.67;;
51664;SDS011;37751;52.408;12.536;2023-02-28T16:45:23;7.80;;;4.40;;
51664;SDS011;37751;52.408;12.536;2023-02-28T16:47:53;11.00;;;4.37;;
51664;SDS011;37751;52.408;12.536;2023-02-28T16:50:26;7.87;;;3.77;;
51664;SDS011;37751;52.408;12.536;2023-02-28T16:53:02;7.83;;;3.93;;
51664;SDS011;37751;52.408;12.536;2023-02-28T16:55:29;4.53;;;3.40;;
51664;SDS011;37751;52.408;12.536;2023-02-28T16:57:59;8.70;;;4.17;;
51664;SDS011;37751;52.408;12.536;2023-02-28T17:00:29;8.10;;;3.33;;
51664;SDS011;37751;52.408;12.536;2023-02-28T17:02:59;7.83;;;3.47;;
51664;SDS011;37751;52.408;12.536;2023-02-28T17:05:37;9.60;;;3.50;;
51664;SDS011;37751;52.408;12.536;2023-02-28T17:08:08;4.20;;;2.90;;
51664;SDS011;37751;52.408;12.536;2023-02-28T17:10:36;5.33;;;2.70;;
51664;SDS011;37751;52.408;12.536;2023-02-28T17:13:07;21.37;;;6.90;;
51664;SDS011;37751;52.408;12.536;2023-02-28T17:15:54;8.50;;;3.53;;
51664;SDS011;37751;52.408;12.536;2023-02-28T17:18:23;12.47;;;3.97;;
51664;SDS011;37751;52.408;12.536;2023-02-28T17:20:50;8.80;;;3.53;;
51664;SDS011;37751;52.408;12.536;2023-02-28T17:23:18;5.50;;;3.03;;
51664;SDS011;37751;52.408;12.536;2023-02-28T17:25:48;8.57;;;4.07;;
51664;SDS011;37751;52.408;12.536;2023-02-28T17:28:27;6.70;;;4.00;;
51664;SDS011;37751;52.408;12.536;2023-02-28T17:30:59;7.40;;;3.43;;
51664;SDS011;37751;52.408;12.536;2023-02-28T17:33:32;8.77;;;4.20;;
51664;SDS011;37751;52.408;12.536;2023-02-28T17:36:00;9.97;;;3.90;;
51664;SDS011;37751;52.408;12.536;2023-02-28T17:38:39;10.27;;;4.13;;
51664;SDS011;37751;52.408;12.536;2023-02-28T17:41:11;14.27;;;4.17;;
51664;SDS011;37751;52.408;12.536;2023-02-28T17:43:39;8.03;;;3.60;;
51664;SDS011;37751;52.408;12.536;2023-02-28T17:46:22;10.53;;;4.00;;
51664;SDS011;37751;52.408;12.536;2023-02-28T17:48:52;17.37;;;4.03;;
51664;SDS011;37751;52.408;12.536;2023-02-28T17:51:22;8.53;;;4.60;;
51664;SDS011;37751;52.408;12.536;2023-02-28T17:53:52;9.80;;;5.17;;
51664;SDS011;37751;52.408;12.536;2023-02-28T17:56:22;5.93;;;3.40;;
51664;SDS011;37751;52.408;12.536;2023-02-28T17:58:54;9.03;;;4.20;;
51664;SDS011;37751;52.408;12.536;2023-02-28T18:01:27;10.83;;;4.40;;